• Join FlightAware (Why Join?)
  • Login
  • US Flag 
09:42PM EDT


 

Airport Tracker/Info


-or-


 

Live Flight TrackerFlight Track Log ✈ C-GONN ✈ 13-Apr-2013 ✈ CYVR - CYXC

Flight Track Log - Related Links

Times and Time Zones

All times are in EDT time to prevent confusion due to time zone crossing. See the C-GONN flight status page for this flight to view local times or setup timezone preferences in your user account.

Time Position Orientation Groundspeed Altitude Reporting Facility
EDT Latitude Longitude Course Direction KTS MPH feet Rate Location/Type
09:41PM 49.0667 -122.8321 90° East  Level FlightAware Approximate
09:42PM 49.0667 -122.7323 90° East  Level FlightAware Approximate
09:42PM 48.9833 -123.1667 90° East 180 207 6,800  Level Vancouver Center
09:43PM 49.0667 -122.6325 90° East  Level FlightAware Approximate
09:43PM 48.9667 -123.0833 107° East 180 207 7,800  Level Vancouver Center
09:44PM 49.0667 -122.5327 90° East  Level FlightAware Approximate
09:44PM 48.9667 -123.0167 90° East 190 219 8,800  Level Vancouver Center
09:45PM 49.0667 -122.4328 90° East  Level FlightAware Approximate
09:45PM 48.9667 -122.9333 90° East 190 219 9,800  Level Vancouver Center
09:46PM 49.0667 -122.3330 90° East  Level FlightAware Approximate
09:46PM 48.9667 -122.8667 90° East 190 219 10,800  Level Vancouver Center
09:47PM 49.0667 -122.2332 90° East  Level FlightAware Approximate
09:47PM 48.9833 -122.7500 78° East 200 230 12,000  Level Vancouver Center
09:48PM 49.0000 -122.6833 69° East 200 230 12,800 900 Climbing Vancouver Center
09:49PM 49.0167 -122.6000 73° East 200 230 13,900 900 Climbing Vancouver Center
09:50PM 49.0333 -122.5333 69° East 210 242 14,700 840 Climbing Vancouver Center
09:51PM 49.0500 -122.4167 78° East 210 242 15,600 900 Climbing Vancouver Center
09:52PM 49.0667 -122.3500 69° East 210 242 16,500 900 Climbing Vancouver Center
09:53PM 49.0833 -122.2500 76° East 220 253 17,400 840 Climbing Vancouver Center
09:54PM 49.1000 -122.1667 73° East 220 253 18,200 660 Climbing Vancouver Center
09:55PM 49.0833 -122.0667 104° East 220 253 18,800 600 Climbing Vancouver Center
09:56PM 49.1000 -121.9833 73° East 230 265 19,400 720 Climbing Vancouver Center
09:57PM 49.1167 -121.8833 76° East 230 265 20,300 840 Climbing Vancouver Center
09:58PM 49.1333 -121.7833 76° East 220 253 21,100 660 Climbing Vancouver Center
09:59PM 49.1500 -121.7000 73° East 220 253 21,700 600 Climbing Vancouver Center
10:00PM 49.1667 -121.6000 76° East 220 253 22,300 660 Climbing Vancouver Center
10:01PM 49.1833 -121.5333 69° East 220 253 23,100 600 Climbing Vancouver Center
10:02PM 49.2000 -121.4167 78° East 220 253 23,600 660 Climbing Vancouver Center
10:03PM 49.2167 -121.3500 69° East 210 242 24,500 660 Climbing Vancouver Center
10:04PM 49.2333 -121.2667 73° East 200 230 25,000 240 Climbing Vancouver Center
10:05PM 49.2333 -121.1667 90° East 210 242 25,000  Level Vancouver Center
10:06PM 49.2500 -121.0667 76° East 240 276 25,000  Level Vancouver Center
10:07PM 49.2667 -120.9667 76° East 250 288 25,000  Level Vancouver Center
10:08PM 49.2833 -120.8500 78° East 260 299 25,000  Level Vancouver Center
10:09PM 49.3000 -120.7500 76° East 260 299 25,000  Level Vancouver Center
10:10PM 49.3167 -120.6167 79° East 260 299 25,000  Level Vancouver Center
10:11PM 49.3333 -120.5167 76° East 260 299 25,000  Level Vancouver Center
10:12PM 49.3500 -120.4167 76° East 260 299 25,000  Level Vancouver Center
10:13PM 49.3667 -120.3167 76° East 260 299 25,000  Level Vancouver Center
10:14PM 49.3833 -120.2167 76° East 260 299 25,000  Level Vancouver Center
10:15PM 49.4000 -120.0833 79° East 260 299 25,000  Level Vancouver Center
10:16PM 49.4000 -119.9833 90° East 260 299 25,000  Level Vancouver Center
10:17PM 49.4167 -119.8667 78° East 260 299 25,000  Level Vancouver Center
10:18PM 49.4333 -119.7667 76° East 260 299 25,000  Level Vancouver Center
10:19PM 49.4667 -119.6667 63° Northeast 260 299 25,000  Level Vancouver Center
10:20PM 49.4833 -119.5667 76° East 250 288 25,000  Level Vancouver Center
10:21PM 49.4833 -119.4500 90° East 250 288 25,000  Level Vancouver Center
10:22PM 49.5000 -119.3500 76° East 250 288 25,000  Level Vancouver Center
10:23PM 49.5167 -119.2500 76° East 250 288 25,000  Level Vancouver Center
10:24PM 49.5333 -119.1500 76° East 250 288 25,000  Level Vancouver Center
10:25PM 49.5333 -119.0333 90° East 250 288 25,000  Level Vancouver Center
10:26PM 49.5500 -118.9333 76° East 250 288 25,000  Level Vancouver Center
10:27PM 49.5667 -118.8333 76° East 250 288 25,000  Level Vancouver Center
10:28PM 49.5833 -118.7167 78° East 250 288 25,000  Level Vancouver Center
10:29PM 49.5833 -118.6167 90° East 250 288 25,000  Level Vancouver Center
10:30PM 49.6000 -118.5167 76° East 250 288 25,000  Level Vancouver Center
10:31PM 49.6333 -118.4167 63° Northeast 250 288 25,000  Level Vancouver Center
10:32PM 49.6333 -118.3000 90° East 250 288 25,000  Level Vancouver Center
10:33PM 49.6500 -118.2000 76° East 240 276 25,000  Level Vancouver Center
10:34PM 49.6667 -118.1000 76° East 240 276 25,000  Level Vancouver Center
10:35PM 49.6667 -117.9833 90° East 240 276 25,000  Level Vancouver Center
10:36PM 49.6833 -117.8833 76° East 240 276 25,000  Level Vancouver Center
10:37PM 49.7000 -117.8000 73° East 240 276 25,000  Level Vancouver Center
10:38PM 49.7167 -117.7000 76° East 240 276 25,000  Level Vancouver Center
10:39PM 49.7167 -117.6000 90° East 240 276 25,000  Level Vancouver Center
10:40PM 49.7333 -117.5000 76° East 240 276 25,000  Level Vancouver Center
10:41PM 49.7500 -117.3833 77° East 240 276 25,000  Level Vancouver Center
10:42PM 49.7500 -117.2833 90° East 240 276 25,000  Level Vancouver Center
10:43PM 49.7667 -117.1833 75° East 240 276 25,000  Level Vancouver Center
10:44PM 49.7833 -117.1000 73° East 240 276 25,000  Level Vancouver Center
10:45PM 49.7833 -116.9667 90° East 240 276 25,000  Level Vancouver Center
10:46PM 49.8000 -116.8833 73° East 250 288 25,000 -720 Level Vancouver Center
10:47PM 49.8167 -116.7500 79° East 260 299 23,600 -1,500 Descending Vancouver Center
10:48PM 49.8333 -116.6500 75° East 270 311 22,100 -1,440 Descending Vancouver Center
10:49PM 49.8500 -116.5500 75° East 260 299 20,800 -1,440 Descending Vancouver Center
10:50PM 49.8500 -116.4333 90° East 250 288 19,300 -1,380 Descending Vancouver Center
10:51PM 49.8667 -116.3333 75° East 250 288 18,100 -1,500 Descending Vancouver Center
10:52PM 49.8667 -116.2333 90° East 260 299 16,300 -1,500 Descending Vancouver Center
10:53PM 49.8833 -116.1500 73° East 250 288 15,100 -1,260 Descending Vancouver Center
10:54PM 49.9000 -116.0333 77° East 240 276 13,800 -1,320 Descending Vancouver Center
10:55PM 49.9000 -115.9667 90° East 230 265 12,500 -1,200 Descending Vancouver Center
10:56PM 49.9167 -115.8500 77° East 220 253 11,500 -900 Descending Vancouver Center
10:57PM 49.9167 -115.8000 90° East 190 219 10,700 -840 Descending Vancouver Center
10:59PM 49.8334 -115.8300 169° South  Level FlightAware Approximate
11:06PM 49.6108 -115.7822 168° South  Level Estimated
11:07PM 49.6108 -115.7822 168° South  Level Estimated
11:08PM 49.6108 -115.7822 168° South  Level Estimated
11:09PM 49.6108 -115.7822 168° South  Level Estimated